createdAt,value
2022-08-29T00:00:17.745Z,91.4
2022-08-29T00:01:16.560Z,92.0
2022-08-29T00:02:17.185Z,90.5
2022-08-29T00:03:18.410Z,91.2
2022-08-29T00:04:19.116Z,92.0
2022-08-29T00:05:19.717Z,91.0
2022-08-29T00:06:21.323Z,90.4
2022-08-29T00:07:21.900Z,90.8
2022-08-29T00:08:22.497Z,91.1
2022-08-29T00:09:23.094Z,92.1
2022-08-29T00:10:23.687Z,91.8
2022-08-29T00:11:24.281Z,91.5
2022-08-29T00:12:24.877Z,91.9
2022-08-29T00:13:25.473Z,91.7
2022-08-29T00:14:26.067Z,91.8
2022-08-29T00:15:26.661Z,91.4
2022-08-29T00:16:27.314Z,90.3
2022-08-29T00:17:27.867Z,90.7
2022-08-29T00:18:28.462Z,89.8
2022-08-29T00:19:29.055Z,90.0
2022-08-29T00:20:34.319Z,89.8
2022-08-29T00:21:31.258Z,89.8
2022-08-29T00:22:31.837Z,89.9
2022-08-29T00:23:32.432Z,89.8
2022-08-29T00:24:33.027Z,89.6
2022-08-29T00:25:33.621Z,90.1
2022-08-29T00:26:34.235Z,90.5
2022-08-29T00:27:34.830Z,91.2
2022-08-29T00:28:35.426Z,92.1
2022-08-29T00:29:36.022Z,91.8
2022-08-29T00:30:36.615Z,91.7
2022-08-29T00:31:37.249Z,91.7
2022-08-29T00:32:37.828Z,91.4
2022-08-29T00:33:39.208Z,91.8
2022-08-29T00:34:39.963Z,91.8
2022-08-29T00:35:40.667Z,91.7
2022-08-29T00:36:41.186Z,91.4
2022-08-29T00:37:42.775Z,91.5
2022-08-29T00:38:43.393Z,91.7
2022-08-29T00:39:43.967Z,91.7
2022-08-29T00:40:47.131Z,91.7
2022-08-29T00:41:46.149Z,91.5
2022-08-29T00:42:46.745Z,91.4
2022-08-29T00:43:47.339Z,91.8
2022-08-29T00:44:47.937Z,91.7
2022-08-29T00:45:48.576Z,91.9
2022-08-29T00:46:49.130Z,91.9
2022-08-29T00:47:49.724Z,91.8
2022-08-29T00:48:50.320Z,92.2
2022-08-29T00:49:51.908Z,92.5
2022-08-29T00:50:52.503Z,92.5
2022-08-29T00:51:53.099Z,92.4
2022-08-29T00:52:53.697Z,92.8
2022-08-29T00:53:54.288Z,92.9
2022-08-29T00:54:54.885Z,92.9
2022-08-29T00:55:55.481Z,93.2
2022-08-29T00:56:56.077Z,93.1
2022-08-29T00:57:56.673Z,93.1
2022-08-29T00:58:57.268Z,93.1
2022-08-29T00:59:57.862Z,93.4
2022-08-29T01:00:58.559Z,93.2
2022-08-29T01:01:59.174Z,93.5
2022-08-29T01:02:59.755Z,93.3
2022-08-29T01:04:00.352Z,93.6
2022-08-29T01:05:00.947Z,93.3
2022-08-29T01:06:01.542Z,94.0
2022-08-29T01:07:02.137Z,93.9
2022-08-29T01:08:02.732Z,93.7
2022-08-29T01:09:03.327Z,93.7
2022-08-29T01:10:03.922Z,93.4
2022-08-29T01:11:05.511Z,93.2
2022-08-29T01:12:06.106Z,93.3
2022-08-29T01:13:06.703Z,93.4
2022-08-29T01:14:07.299Z,93.4
2022-08-29T01:15:07.893Z,93.4
2022-08-29T01:16:08.600Z,93.2
2022-08-29T01:17:09.159Z,93.1
2022-08-29T01:18:09.752Z,94.0
2022-08-29T01:19:10.346Z,93.7
2022-08-29T01:20:10.941Z,93.2
2022-08-29T01:21:11.536Z,93.4
2022-08-29T01:22:12.132Z,93.4
2022-08-29T01:23:12.730Z,93.4
2022-08-29T01:24:13.325Z,93.4
2022-08-29T01:25:13.921Z,93.1
2022-08-29T01:26:14.513Z,93.1
2022-08-29T01:27:15.111Z,93.2
2022-08-29T01:28:15.838Z,93.5
2022-08-29T01:29:16.421Z,93.8
2022-08-29T01:30:17.018Z,94.0
2022-08-29T01:31:42.216Z,94.0
2022-08-29T01:32:19.311Z,94.0
2022-08-29T01:33:19.852Z,93.9
2022-08-29T01:34:20.448Z,93.3
2022-08-29T01:35:21.055Z,94.0
2022-08-29T01:36:21.649Z,94.0
2022-08-29T01:37:22.244Z,93.7
2022-08-29T01:38:22.840Z,94.2
2022-08-29T01:39:23.435Z,94.3
2022-08-29T01:40:24.129Z,94.0
2022-08-29T01:41:24.682Z,93.9
2022-08-29T01:42:25.275Z,93.9
2022-08-29T01:43:25.872Z,93.9
2022-08-29T01:44:26.465Z,94.4
2022-08-29T01:45:27.139Z,94.4
2022-08-29T01:46:27.731Z,94.0
2022-08-29T01:47:28.334Z,94.0
2022-08-29T01:48:28.924Z,94.0
2022-08-29T01:49:29.524Z,94.3
2022-08-29T01:50:30.110Z,94.2
2022-08-29T01:51:30.707Z,94.5
2022-08-29T01:52:31.301Z,94.5
2022-08-29T01:53:31.894Z,94.2
2022-08-29T01:54:32.492Z,94.7
2022-08-29T01:55:33.084Z,94.3
2022-08-29T01:56:33.678Z,94.3
2022-08-29T01:57:34.273Z,93.9
2022-08-29T01:58:34.868Z,93.8
2022-08-29T01:59:35.465Z,93.4
2022-08-29T02:00:36.151Z,93.5
2022-08-29T02:01:36.774Z,93.5
2022-08-29T02:02:37.388Z,93.9
2022-08-29T02:03:38.923Z,93.5
2022-08-29T02:04:39.517Z,93.5
2022-08-29T02:05:40.130Z,93.7
2022-08-29T02:06:40.707Z,93.8
2022-08-29T02:07:41.301Z,93.9
2022-08-29T02:08:41.894Z,94.1
2022-08-29T02:09:45.655Z,94.0
2022-08-29T02:10:44.078Z,94.4
2022-08-29T02:11:44.693Z,94.8
2022-08-29T02:12:45.309Z,94.6
2022-08-29T02:13:45.904Z,94.6
2022-08-29T02:14:46.498Z,94.5
2022-08-29T02:15:47.094Z,94.5
2022-08-29T02:16:47.801Z,94.7
2022-08-29T02:17:48.555Z,94.9
2022-08-29T02:18:49.162Z,94.5
2022-08-29T02:19:49.757Z,95.1
2022-08-29T02:20:51.140Z,95.2
2022-08-29T02:21:51.755Z,95.2
2022-08-29T02:22:52.350Z,95.4
2022-08-29T02:23:52.947Z,95.4
2022-08-29T02:24:53.542Z,95.0
2022-08-29T02:25:54.140Z,95.3
2022-08-29T02:26:54.739Z,95.1
2022-08-29T02:27:55.328Z,95.1
2022-08-29T02:28:55.924Z,94.9
2022-08-29T02:29:56.521Z,95.1
2022-08-29T02:30:57.122Z,95.1
2022-08-29T02:31:57.712Z,95.0
2022-08-29T02:32:58.305Z,95.1
2022-08-29T02:33:59.720Z,95.2
2022-08-29T02:35:00.499Z,95.2
2022-08-29T02:36:01.266Z,95.0
2022-08-29T02:37:01.809Z,95.5
2022-08-29T02:38:02.407Z,95.0
2022-08-29T02:39:03.004Z,95.9
2022-08-29T02:40:03.632Z,95.9
2022-08-29T02:41:04.192Z,95.7
2022-08-29T02:42:04.792Z,95.7
2022-08-29T02:43:05.383Z,95.6
2022-08-29T02:44:05.981Z,95.7
2022-08-29T02:45:06.572Z,95.2
2022-08-29T02:46:07.170Z,95.4
2022-08-29T02:47:07.844Z,95.1
2022-08-29T02:48:08.443Z,94.9
2022-08-29T02:49:09.032Z,95.1
2022-08-29T02:50:09.630Z,95.1
2022-08-29T02:51:11.198Z,95.2
2022-08-29T02:52:11.795Z,95.1
2022-08-29T02:53:12.391Z,95.0
2022-08-29T02:54:12.987Z,94.8
2022-08-29T02:55:13.580Z,95.2
2022-08-29T02:56:14.400Z,95.2
2022-08-29T02:57:14.999Z,95.1
2022-08-29T02:58:15.813Z,95.3
2022-08-29T02:59:16.428Z,94.9
2022-08-29T03:00:17.030Z,95.4
2022-08-29T03:01:17.652Z,95.7
2022-08-29T03:02:18.272Z,95.9
2022-08-29T03:03:18.833Z,95.7
2022-08-29T03:04:19.429Z,95.4
2022-08-29T03:05:20.690Z,95.2
2022-08-29T03:06:21.284Z,95.4
2022-08-29T03:07:21.881Z,95.8
2022-08-29T03:08:22.477Z,95.8
2022-08-29T03:09:23.069Z,95.8
2022-08-29T03:10:23.665Z,95.4
2022-08-29T03:11:24.260Z,96.1
2022-08-29T03:12:24.855Z,96.6
2022-08-29T03:13:26.444Z,96.6
2022-08-29T03:14:27.041Z,96.7
2022-08-29T03:15:27.636Z,96.6
2022-08-29T03:16:28.251Z,96.7
2022-08-29T03:17:28.828Z,96.5
2022-08-29T03:18:29.426Z,96.6
2022-08-29T03:19:30.023Z,96.5
2022-08-29T03:20:30.616Z,96.4
2022-08-29T03:21:31.211Z,96.8
2022-08-29T03:22:31.804Z,96.7
2022-08-29T03:23:32.420Z,96.7
2022-08-29T03:24:33.012Z,96.6
2022-08-29T03:25:33.607Z,96.7
2022-08-29T03:26:34.201Z,96.6
2022-08-29T03:27:34.796Z,96.5
2022-08-29T03:28:35.390Z,96.9
2022-08-29T03:29:35.985Z,96.8
2022-08-29T03:30:36.578Z,96.9
2022-08-29T03:31:37.258Z,96.8
2022-08-29T03:32:37.873Z,97.1
2022-08-29T03:33:38.469Z,96.8
2022-08-29T03:34:39.064Z,97.2
2022-08-29T03:35:39.661Z,96.8
2022-08-29T03:36:40.256Z,97.2
2022-08-29T03:37:40.852Z,97.1
2022-08-29T03:38:41.447Z,97.3
2022-08-29T03:39:42.043Z,96.8
2022-08-29T03:40:42.727Z,96.9
2022-08-29T03:41:43.284Z,97.1
2022-08-29T03:42:43.884Z,97.1
2022-08-29T03:43:44.476Z,97.1
2022-08-29T03:44:45.071Z,97.3
2022-08-29T03:45:45.669Z,97.0
2022-08-29T03:46:46.315Z,96.7
2022-08-29T03:47:47.393Z,96.7
2022-08-29T03:48:47.987Z,97.0
2022-08-29T03:49:48.584Z,97.1
2022-08-29T03:50:52.176Z,96.9
2022-08-29T03:51:49.791Z,96.8
2022-08-29T03:52:50.384Z,96.8
2022-08-29T03:53:50.981Z,96.8
2022-08-29T03:54:51.575Z,96.7
2022-08-29T03:55:52.174Z,96.8
2022-08-29T03:56:52.937Z,96.8
2022-08-29T03:57:53.533Z,96.9
2022-08-29T03:58:54.133Z,97.0
2022-08-29T03:59:54.724Z,96.5
2022-08-29T04:00:55.318Z,96.7
2022-08-29T04:01:56.017Z,97.4
2022-08-29T04:02:56.568Z,96.6
2022-08-29T04:03:57.155Z,96.8
2022-08-29T04:04:57.751Z,96.5
2022-08-29T04:05:58.348Z,96.5
2022-08-29T04:06:58.943Z,97.0
2022-08-29T04:07:59.538Z,96.8
2022-08-29T04:09:00.135Z,96.8
2022-08-29T04:10:00.728Z,97.0
2022-08-29T04:11:01.324Z,96.3
2022-08-29T04:12:01.918Z,96.5
2022-08-29T04:13:02.514Z,97.0
2022-08-29T04:14:03.113Z,96.4
2022-08-29T04:15:03.858Z,96.6
2022-08-29T04:16:04.508Z,96.5
2022-08-29T04:17:05.081Z,96.5
2022-08-29T04:18:06.916Z,96.1
2022-08-29T04:19:08.881Z,95.8
2022-08-29T04:20:08.859Z,96.3
2022-08-29T04:21:09.475Z,95.7
2022-08-29T04:22:10.074Z,95.6
2022-08-29T04:23:10.670Z,95.0
2022-08-29T04:24:11.269Z,95.3
2022-08-29T04:25:11.866Z,94.8
2022-08-29T04:26:31.655Z,95.7
2022-08-29T04:27:14.058Z,95.7
2022-08-29T04:28:15.790Z,95.0
2022-08-29T04:29:16.383Z,94.4
2022-08-29T04:30:16.984Z,94.9
2022-08-29T04:31:17.616Z,94.8
2022-08-29T04:32:18.199Z,95.1
2022-08-29T04:33:22.788Z,95.0
2022-08-29T04:34:20.390Z,94.9
2022-08-29T04:35:20.988Z,95.0
2022-08-29T04:36:21.586Z,94.7
2022-08-29T04:37:22.199Z,94.5
2022-08-29T04:38:22.781Z,94.4
2022-08-29T04:39:23.381Z,94.7
2022-08-29T04:40:24.058Z,94.1
2022-08-29T04:41:24.656Z,94.0
2022-08-29T04:42:25.255Z,93.6
2022-08-29T04:43:25.859Z,93.7
2022-08-29T04:44:26.477Z,93.8
2022-08-29T04:45:27.076Z,94.0
2022-08-29T04:46:27.714Z,93.8
2022-08-29T04:47:28.277Z,93.8
2022-08-29T04:48:28.880Z,93.7
2022-08-29T04:49:29.479Z,93.9
2022-08-29T04:50:30.080Z,93.8
2022-08-29T04:51:30.680Z,94.2
2022-08-29T04:52:31.283Z,94.3
2022-08-29T04:53:31.882Z,94.4
2022-08-29T04:54:32.483Z,94.8
2022-08-29T04:55:33.459Z,94.6
2022-08-29T04:56:34.608Z,94.6
2022-08-29T04:57:35.348Z,94.7
2022-08-29T04:58:36.091Z,94.6
2022-08-29T04:59:36.689Z,94.5
2022-08-29T05:00:37.289Z,94.4
2022-08-29T05:01:37.950Z,94.4
2022-08-29T05:02:38.563Z,94.2
2022-08-29T05:03:39.106Z,93.8
2022-08-29T05:04:39.708Z,93.5
2022-08-29T05:05:40.308Z,93.3
2022-08-29T05:06:40.911Z,93.0
2022-08-29T05:07:41.509Z,92.9
2022-08-29T05:08:42.110Z,92.9
2022-08-29T05:09:42.710Z,92.6
2022-08-29T05:10:43.311Z,92.7
2022-08-29T05:11:43.910Z,92.9
2022-08-29T05:12:44.512Z,92.9
2022-08-29T05:13:45.110Z,92.9
2022-08-29T05:14:45.711Z,92.9
2022-08-29T05:15:46.318Z,92.9
2022-08-29T05:16:46.928Z,92.7
2022-08-29T05:17:47.531Z,93.3
2022-08-29T05:18:48.129Z,93.4
2022-08-29T05:19:48.728Z,93.1
2022-08-29T05:20:49.330Z,94.0
2022-08-29T05:21:49.928Z,93.7
2022-08-29T05:22:50.530Z,93.6
2022-08-29T05:23:51.130Z,94.0
2022-08-29T05:24:51.731Z,94.0
2022-08-29T05:25:52.330Z,94.2
2022-08-29T05:26:52.932Z,94.1
2022-08-29T05:27:53.531Z,94.0
2022-08-29T05:28:54.889Z,94.0
2022-08-29T05:29:55.492Z,93.6
2022-08-29T05:30:56.152Z,93.2
2022-08-29T05:31:56.710Z,93.6
2022-08-29T05:32:57.311Z,93.3
2022-08-29T05:33:57.913Z,93.2
2022-08-29T05:34:58.513Z,93.1
2022-08-29T05:35:59.113Z,93.0
2022-08-29T05:36:59.715Z,93.2
2022-08-29T05:38:00.335Z,93.3
2022-08-29T05:39:00.939Z,93.1
2022-08-29T05:40:01.561Z,93.2
2022-08-29T05:41:02.148Z,93.3
2022-08-29T05:42:02.750Z,92.8
2022-08-29T05:43:03.348Z,93.1
2022-08-29T05:44:03.948Z,92.8
2022-08-29T05:45:04.550Z,92.9
2022-08-29T05:46:05.210Z,93.1
2022-08-29T05:47:05.767Z,92.8
2022-08-29T05:48:06.368Z,92.9
2022-08-29T05:49:06.970Z,92.8
2022-08-29T05:50:07.569Z,92.0
2022-08-29T05:51:08.173Z,92.2
2022-08-29T05:52:08.772Z,91.7
2022-08-29T05:53:09.379Z,91.4
2022-08-29T05:54:10.006Z,90.9
2022-08-29T05:55:10.602Z,89.9
2022-08-29T05:56:11.204Z,89.5
2022-08-29T05:57:16.665Z,89.5
2022-08-29T05:58:13.625Z,89.5
2022-08-29T05:59:14.016Z,90.2
2022-08-29T06:00:14.618Z,90.2
2022-08-29T06:01:15.220Z,90.5
2022-08-29T06:02:15.921Z,90.7
2022-08-29T06:03:16.685Z,91.1
2022-08-29T06:04:17.154Z,90.1
2022-08-29T06:05:17.753Z,91.1
2022-08-29T06:06:18.352Z,90.9
2022-08-29T06:07:19.789Z,90.5
2022-08-29T06:08:20.387Z,90.9
2022-08-29T06:09:20.988Z,90.3
2022-08-29T06:10:21.587Z,90.6
2022-08-29T06:11:22.189Z,89.9
2022-08-29T06:12:24.271Z,90.1
2022-08-29T06:13:23.405Z,90.6
2022-08-29T06:14:24.008Z,89.6
2022-08-29T06:15:24.606Z,89.8
2022-08-29T06:16:25.207Z,91.3
2022-08-29T06:17:25.808Z,90.4
2022-08-29T06:18:31.565Z,89.7
2022-08-29T06:19:27.046Z,90.8
2022-08-29T06:20:27.667Z,90.0
2022-08-29T06:21:28.272Z,89.3
2022-08-29T06:22:28.871Z,89.5
2022-08-29T06:23:29.491Z,89.5
2022-08-29T06:24:31.017Z,90.1
2022-08-29T06:25:39.526Z,90.2
2022-08-29T06:26:33.216Z,90.2
2022-08-29T06:27:33.833Z,90.9
2022-08-29T06:28:34.432Z,90.4
2022-08-29T06:29:43.178Z,89.6
2022-08-29T06:30:36.679Z,89.5
2022-08-29T06:31:37.271Z,89.6
2022-08-29T06:32:37.869Z,89.4
2022-08-29T06:33:38.471Z,89.2
2022-08-29T06:34:39.092Z,89.2
2022-08-29T06:35:39.695Z,89.1
2022-08-29T06:36:40.295Z,88.9
2022-08-29T06:37:40.917Z,89.4
2022-08-29T06:38:41.520Z,89.5
2022-08-29T06:39:42.121Z,89.4
2022-08-29T06:40:42.792Z,89.4
2022-08-29T06:41:43.340Z,88.9
2022-08-29T06:42:43.940Z,88.7
2022-08-29T06:43:44.546Z,88.9
2022-08-29T06:44:45.143Z,87.7
2022-08-29T06:45:45.750Z,87.6
2022-08-29T06:46:46.346Z,87.2
2022-08-29T06:47:46.947Z,88.1
2022-08-29T06:48:47.546Z,87.3
2022-08-29T06:49:48.149Z,87.2
2022-08-29T06:50:48.752Z,86.2
2022-08-29T06:51:49.354Z,85.7
2022-08-29T06:52:49.974Z,85.4
2022-08-29T06:53:50.668Z,85.2
2022-08-29T06:54:51.269Z,84.8
2022-08-29T06:55:52.865Z,84.5
2022-08-29T06:56:53.538Z,84.1
2022-08-29T06:57:54.140Z,83.1
2022-08-29T06:58:54.759Z,83.0
2022-08-29T06:59:55.362Z,83.1
2022-08-29T07:00:55.993Z,82.0
2022-08-29T07:01:56.643Z,81.4
2022-08-29T07:02:57.286Z,80.8
2022-08-29T07:03:57.871Z,80.8
2022-08-29T07:04:58.490Z,80.7
2022-08-29T07:05:59.092Z,81.0
2022-08-29T07:06:59.691Z,81.0
2022-08-29T07:08:00.290Z,80.6
2022-08-29T07:09:00.890Z,81.4
2022-08-29T07:10:01.493Z,81.4
2022-08-29T07:11:02.094Z,80.5
2022-08-29T07:12:02.698Z,80.5
2022-08-29T07:13:03.321Z,78.4
2022-08-29T07:14:03.923Z,77.6
2022-08-29T07:15:04.526Z,77.2
2022-08-29T07:16:05.165Z,76.7
2022-08-29T07:17:05.726Z,76.9
2022-08-29T07:18:06.328Z,77.3
2022-08-29T07:19:06.929Z,76.1
2022-08-29T07:20:07.534Z,72.8
2022-08-29T07:21:08.134Z,73.0
2022-08-29T07:22:08.737Z,69.3
2022-08-29T07:23:09.383Z,70.6
2022-08-29T07:24:10.935Z,71.0
2022-08-29T07:25:11.537Z,71.2
2022-08-29T07:26:12.160Z,71.9
2022-08-29T07:27:12.762Z,72.2
2022-08-29T07:28:13.389Z,72.7
2022-08-29T07:29:14.964Z,73.5
2022-08-29T07:30:15.583Z,74.3
2022-08-29T07:31:16.894Z,74.5
2022-08-29T07:32:17.484Z,74.4
2022-08-29T07:33:18.088Z,74.1
2022-08-29T07:34:20.534Z,73.9
2022-08-29T07:35:30.019Z,72.8
2022-08-29T07:36:21.878Z,73.0
2022-08-29T07:37:22.480Z,72.4
2022-08-29T07:38:23.105Z,74.1
2022-08-29T07:39:23.706Z,74.7
2022-08-29T07:40:24.377Z,75.0
2022-08-29T07:41:24.968Z,75.1
2022-08-29T07:42:25.563Z,75.4
2022-08-29T07:43:28.005Z,75.0
2022-08-29T07:44:27.780Z,75.4
2022-08-29T07:45:29.385Z,76.0
2022-08-29T07:46:30.035Z,75.6
2022-08-29T07:47:30.595Z,75.6
2022-08-29T07:48:31.198Z,75.5
2022-08-29T07:49:40.574Z,75.7
2022-08-29T07:50:33.397Z,75.1
2022-08-29T07:51:34.020Z,74.8
2022-08-29T07:52:34.622Z,74.7
2022-08-29T07:53:35.225Z,74.3
2022-08-29T07:54:35.832Z,74.1
2022-08-29T07:55:36.434Z,74.6
2022-08-29T07:56:38.089Z,74.6
2022-08-29T07:57:39.923Z,74.3
2022-08-29T07:58:40.228Z,74.0
2022-08-29T07:59:41.823Z,73.5
2022-08-29T08:00:42.426Z,73.4
2022-08-29T08:01:43.074Z,73.2
2022-08-29T08:02:43.667Z,72.6
2022-08-29T08:03:44.245Z,70.6
2022-08-29T08:04:45.732Z,71.2
2022-08-29T08:05:46.327Z,69.9
2022-08-29T08:06:47.294Z,69.9
2022-08-29T08:07:47.898Z,69.5
2022-08-29T08:08:48.500Z,69.2
2022-08-29T08:09:49.101Z,69.4
2022-08-29T08:10:52.155Z,69.1
2022-08-29T08:11:51.300Z,69.1
2022-08-29T08:12:51.901Z,68.7
2022-08-29T08:13:52.510Z,69.2
2022-08-29T08:14:53.106Z,69.2
2022-08-29T08:15:53.729Z,71.0
2022-08-29T08:16:54.385Z,70.4
2022-08-29T08:17:54.947Z,70.4
2022-08-29T08:18:55.548Z,71.0
2022-08-29T08:19:56.151Z,71.3
2022-08-29T08:20:56.755Z,70.7
2022-08-29T08:21:57.356Z,70.2
2022-08-29T08:22:57.960Z,69.8
2022-08-29T08:23:58.564Z,70.7
2022-08-29T08:24:59.167Z,69.7
2022-08-29T08:25:59.774Z,69.1
2022-08-29T08:27:00.371Z,69.9
2022-08-29T08:28:00.974Z,68.9
2022-08-29T08:29:01.575Z,68.9
2022-08-29T08:30:02.202Z,69.7
2022-08-29T08:31:06.132Z,70.4
2022-08-29T08:32:04.378Z,71.2
2022-08-29T08:33:04.982Z,70.5
2022-08-29T08:34:05.862Z,70.5
2022-08-29T08:35:06.425Z,71.0
2022-08-29T08:36:07.035Z,70.6
2022-08-29T08:37:07.650Z,70.3
2022-08-29T08:38:08.308Z,69.7
2022-08-29T08:39:08.862Z,68.9
2022-08-29T08:40:09.509Z,68.9
2022-08-29T08:41:10.069Z,68.6
2022-08-29T08:42:10.673Z,69.5
2022-08-29T08:43:11.336Z,68.5
2022-08-29T08:44:11.897Z,69.0
2022-08-29T08:45:12.520Z,70.0
2022-08-29T08:46:13.165Z,70.6
2022-08-29T08:47:13.742Z,71.7
2022-08-29T08:48:14.362Z,72.0
2022-08-29T08:49:14.983Z,73.2
2022-08-29T08:50:15.585Z,73.0
2022-08-29T08:51:16.187Z,74.4
2022-08-29T08:52:16.792Z,76.3
2022-08-29T08:53:17.393Z,76.0
2022-08-29T08:54:18.000Z,75.8
2022-08-29T08:55:18.621Z,76.3
2022-08-29T08:56:19.222Z,75.7
2022-08-29T08:57:19.822Z,75.3
2022-08-29T08:58:27.284Z,76.4
2022-08-29T08:59:22.018Z,76.3
2022-08-29T09:00:22.622Z,75.9
2022-08-29T09:01:23.272Z,75.6
2022-08-29T09:02:23.887Z,75.5
2022-08-29T09:03:24.450Z,76.3
2022-08-29T09:04:25.070Z,76.5
2022-08-29T09:05:26.667Z,76.2
2022-08-29T09:06:27.268Z,76.4
2022-08-29T09:07:27.871Z,76.6
2022-08-29T09:08:28.473Z,76.3
2022-08-29T09:09:29.075Z,75.3
2022-08-29T09:10:29.679Z,75.8
2022-08-29T09:11:30.281Z,76.2
2022-08-29T09:12:30.906Z,76.4
2022-08-29T09:13:31.509Z,74.4
2022-08-29T09:14:32.112Z,74.7
2022-08-29T09:15:33.075Z,74.8
2022-08-29T09:16:33.691Z,75.1
2022-08-29T09:17:36.472Z,74.9
2022-08-29T09:18:35.874Z,74.3
2022-08-29T09:19:37.015Z,74.1
2022-08-29T09:20:37.618Z,74.1
2022-08-29T09:21:42.071Z,73.3
2022-08-29T09:22:39.837Z,72.8
2022-08-29T09:23:40.440Z,72.6
2022-08-29T09:24:41.042Z,73.1
2022-08-29T09:25:41.646Z,72.4
2022-08-29T09:26:42.250Z,72.6
2022-08-29T09:27:42.855Z,72.8
2022-08-29T09:28:43.457Z,74.0
2022-08-29T09:29:44.082Z,73.7
2022-08-29T09:30:44.684Z,73.6
2022-08-29T09:31:45.315Z,74.2
2022-08-29T09:32:45.891Z,74.2
2022-08-29T09:33:46.496Z,74.2
2022-08-29T09:35:10.537Z,74.1
2022-08-29T09:35:48.721Z,74.1
2022-08-29T09:36:49.323Z,73.6
2022-08-29T09:37:49.946Z,73.3
2022-08-29T09:38:50.548Z,73.1
2022-08-29T09:39:51.959Z,73.9
2022-08-29T09:40:52.554Z,74.6
2022-08-29T09:41:53.152Z,74.1
2022-08-29T09:42:53.756Z,74.0
2022-08-29T09:43:54.356Z,74.4
2022-08-29T09:44:54.959Z,74.7
2022-08-29T09:45:55.651Z,74.4
2022-08-29T09:46:56.203Z,74.9
2022-08-29T09:47:56.805Z,74.1
2022-08-29T09:48:57.429Z,73.5
2022-08-29T09:49:58.031Z,72.7
2022-08-29T09:50:58.636Z,72.3
2022-08-29T09:51:59.260Z,70.4
2022-08-29T09:52:59.903Z,70.8
2022-08-29T09:54:00.555Z,70.7
2022-08-29T09:55:01.156Z,70.9
2022-08-29T09:56:01.759Z,70.5
2022-08-29T09:57:02.381Z,71.1
2022-08-29T09:58:02.964Z,71.4
2022-08-29T09:59:03.570Z,72.3
2022-08-29T10:00:04.171Z,71.5
2022-08-29T10:01:05.493Z,71.4
2022-08-29T10:02:06.474Z,70.6
2022-08-29T10:03:07.049Z,70.6
2022-08-29T10:04:07.985Z,70.6
2022-08-29T10:05:11.991Z,72.0
2022-08-29T10:06:09.862Z,70.4
2022-08-29T10:07:10.465Z,70.5
2022-08-29T10:08:11.066Z,69.5
2022-08-29T10:09:11.670Z,69.5
2022-08-29T10:10:12.293Z,70.2
2022-08-29T10:11:12.898Z,71.0
2022-08-29T10:12:13.499Z,70.2
2022-08-29T10:13:14.181Z,70.7
2022-08-29T10:14:14.772Z,72.1
2022-08-29T10:15:28.134Z,73.7
2022-08-29T10:16:17.014Z,73.3
2022-08-29T10:17:17.567Z,74.0
2022-08-29T10:18:18.169Z,72.9
2022-08-29T10:19:18.772Z,71.9
2022-08-29T10:20:19.375Z,71.5
2022-08-29T10:21:19.978Z,71.0
2022-08-29T10:23:22.205Z,71.4
2022-08-29T10:24:22.804Z,70.5
2022-08-29T10:25:23.458Z,70.7
2022-08-29T10:26:24.082Z,69.9
2022-08-29T10:27:24.688Z,69.4
2022-08-29T10:28:25.288Z,68.5
2022-08-29T10:29:29.592Z,67.9
2022-08-29T10:30:26.507Z,66.9
2022-08-29T10:31:27.259Z,67.8
2022-08-29T10:32:27.842Z,68.3
2022-08-29T10:33:28.446Z,69.6
2022-08-29T10:34:29.048Z,68.7
2022-08-29T10:35:29.653Z,68.5
2022-08-29T10:36:30.261Z,68.4
2022-08-29T10:37:30.858Z,67.9
2022-08-29T10:38:31.461Z,66.7
2022-08-29T10:39:32.063Z,67.0
2022-08-29T10:40:32.735Z,67.9
2022-08-29T10:41:33.287Z,66.6
2022-08-29T10:42:33.889Z,68.4
2022-08-29T10:43:34.492Z,69.2
2022-08-29T10:44:35.094Z,70.3
2022-08-29T10:45:35.726Z,70.5
2022-08-29T10:46:36.313Z,71.5
2022-08-29T10:47:36.916Z,71.8
2022-08-29T10:48:37.519Z,72.4
2022-08-29T10:49:40.768Z,72.2
2022-08-29T10:50:47.002Z,72.7
2022-08-29T10:51:41.308Z,72.6
2022-08-29T10:52:41.914Z,73.7
2022-08-29T10:53:42.513Z,74.2
2022-08-29T10:54:43.112Z,74.2
2022-08-29T10:55:43.715Z,74.4
2022-08-29T10:56:44.314Z,74.4
2022-08-29T10:57:44.918Z,75.5
2022-08-29T10:58:45.523Z,76.2
2022-08-29T10:59:46.126Z,76.2
2022-08-29T11:00:46.771Z,76.2
2022-08-29T11:01:47.374Z,76.3
2022-08-29T11:02:47.974Z,75.8
2022-08-29T11:03:49.632Z,75.8
2022-08-29T11:04:50.177Z,76.4
2022-08-29T11:05:50.779Z,76.0
2022-08-29T11:06:51.381Z,76.5
2022-08-29T11:07:51.980Z,76.9
2022-08-29T11:08:52.582Z,76.8
2022-08-29T11:09:53.181Z,77.1
2022-08-29T11:10:53.781Z,76.7
2022-08-29T11:11:54.383Z,76.4
2022-08-29T11:12:54.983Z,76.2
2022-08-29T11:13:55.585Z,75.7
2022-08-29T11:14:56.183Z,75.4
2022-08-29T11:15:56.846Z,76.0
2022-08-29T11:16:57.404Z,76.0
2022-08-29T11:17:59.002Z,75.8
2022-08-29T11:18:59.625Z,76.0
2022-08-29T11:20:00.232Z,76.4
2022-08-29T11:21:00.830Z,76.1
2022-08-29T11:22:01.435Z,75.6
2022-08-29T11:23:02.036Z,75.1
2022-08-29T11:24:02.640Z,75.3
2022-08-29T11:25:03.242Z,74.7
2022-08-29T11:26:03.923Z,73.8
2022-08-29T11:27:04.463Z,74.9
2022-08-29T11:28:05.067Z,74.9
2022-08-29T11:29:05.671Z,74.3
2022-08-29T11:30:06.292Z,74.0
2022-08-29T11:31:06.913Z,72.0
2022-08-29T11:32:07.499Z,72.0
2022-08-29T11:33:08.159Z,70.2
2022-08-29T11:34:08.712Z,69.5
2022-08-29T11:35:09.317Z,68.6
2022-08-29T11:36:09.918Z,66.8
2022-08-29T11:37:10.521Z,67.0
2022-08-29T11:38:11.141Z,66.6
2022-08-29T11:39:11.746Z,66.0
2022-08-29T11:40:12.408Z,66.2
2022-08-29T11:41:29.139Z,66.5
2022-08-29T11:42:14.657Z,66.5
2022-08-29T11:43:15.450Z,66.1
2022-08-29T11:44:16.088Z,65.0
2022-08-29T11:45:16.691Z,64.3
2022-08-29T11:46:17.338Z,64.3
2022-08-29T11:47:17.980Z,65.1
2022-08-29T11:48:19.317Z,64.8
2022-08-29T11:49:20.010Z,63.9
2022-08-29T11:50:20.537Z,64.2
2022-08-29T11:51:21.142Z,63.3
2022-08-29T11:52:22.524Z,64.0
2022-08-29T11:53:22.380Z,62.8
2022-08-29T11:54:24.975Z,62.8
2022-08-29T11:55:24.579Z,62.8
2022-08-29T11:56:27.927Z,61.7
2022-08-29T11:57:26.781Z,61.4
2022-08-29T11:58:27.385Z,61.4
2022-08-29T11:59:28.007Z,62.8
2022-08-29T12:00:28.636Z,63.7
2022-08-29T12:01:29.235Z,63.1
2022-08-29T12:02:29.838Z,64.0
2022-08-29T12:03:30.708Z,63.5
2022-08-29T12:04:31.487Z,64.0
2022-08-29T12:05:32.030Z,65.0
2022-08-29T12:06:32.637Z,66.1
2022-08-29T12:07:33.236Z,67.1
2022-08-29T12:08:37.249Z,67.1
2022-08-29T12:09:35.438Z,68.0
2022-08-29T12:10:36.041Z,68.4
2022-08-29T12:11:36.644Z,68.5
2022-08-29T12:12:37.245Z,67.6
2022-08-29T12:13:37.849Z,66.8
2022-08-29T12:14:38.510Z,67.0
2022-08-29T12:15:39.051Z,66.3
2022-08-29T12:16:39.710Z,66.3
2022-08-29T12:18:01.044Z,66.8
2022-08-29T12:18:40.891Z,66.7
2022-08-29T12:19:41.494Z,67.8
2022-08-29T12:20:42.099Z,68.3
2022-08-29T12:21:42.737Z,68.6
2022-08-29T12:23:44.877Z,68.4
2022-08-29T12:24:57.380Z,68.9
2022-08-29T12:25:55.200Z,70.0
2022-08-29T12:26:48.671Z,69.5
2022-08-29T12:27:49.275Z,69.2
2022-08-29T12:28:49.876Z,68.4
2022-08-29T12:29:50.482Z,67.9
2022-08-29T12:30:51.084Z,68.5
2022-08-29T12:32:18.098Z,67.9
2022-08-29T12:32:53.727Z,67.7
2022-08-29T12:33:54.416Z,67.9
2022-08-29T12:34:55.034Z,67.6
2022-08-29T12:35:55.652Z,68.0
2022-08-29T12:36:56.255Z,68.3
2022-08-29T12:37:56.861Z,68.7
2022-08-29T12:38:57.482Z,68.4
2022-08-29T12:39:58.166Z,67.6
2022-08-29T12:40:58.745Z,66.5
2022-08-29T12:41:59.349Z,66.1
2022-08-29T12:42:59.959Z,65.9
2022-08-29T12:44:00.564Z,65.6
2022-08-29T12:45:02.170Z,64.3
2022-08-29T12:46:02.762Z,63.8
2022-08-29T12:47:03.416Z,63.8
2022-08-29T12:48:03.965Z,63.8
2022-08-29T12:49:04.567Z,62.8
2022-08-29T12:50:05.172Z,63.3
2022-08-29T12:51:06.768Z,62.4
2022-08-29T12:52:07.374Z,62.7
2022-08-29T12:53:07.994Z,62.1
2022-08-29T12:54:08.600Z,62.0
2022-08-29T12:55:09.221Z,61.3
2022-08-29T12:56:10.820Z,61.4
2022-08-29T12:57:11.421Z,60.8
2022-08-29T12:58:12.088Z,60.7
2022-08-29T12:59:12.646Z,60.5
2022-08-29T13:00:13.249Z,60.7
2022-08-29T13:01:13.907Z,60.9
2022-08-29T13:02:14.525Z,61.3
2022-08-29T13:03:15.818Z,61.9
2022-08-29T13:04:16.488Z,62.6
2022-08-29T13:05:17.110Z,63.0
2022-08-29T13:06:17.713Z,63.5
2022-08-29T13:07:18.401Z,63.2
2022-08-29T13:08:19.410Z,63.0
2022-08-29T13:09:20.190Z,63.6
2022-08-29T13:10:20.813Z,63.3
2022-08-29T13:11:21.424Z,63.2
2022-08-29T13:12:22.018Z,62.5
2022-08-29T13:13:22.619Z,62.0
2022-08-29T13:14:23.222Z,61.2
2022-08-29T13:15:23.824Z,60.9
2022-08-29T13:16:24.507Z,61.2
2022-08-29T13:17:25.067Z,61.4
2022-08-29T13:18:25.673Z,62.5
2022-08-29T13:19:26.278Z,62.5
2022-08-29T13:20:26.881Z,61.9
2022-08-29T13:21:27.486Z,60.6
2022-08-29T13:22:31.764Z,59.7
2022-08-29T13:23:29.685Z,59.9
2022-08-29T13:24:30.307Z,60.2
2022-08-29T13:25:31.902Z,61.8
2022-08-29T13:26:32.508Z,61.9
2022-08-29T13:27:33.108Z,61.7
2022-08-29T13:28:33.713Z,61.5
2022-08-29T13:30:35.793Z,61.0